createdAt,value
2022-08-07T00:00:24.569Z,37.00
2022-08-07T00:02:51.325Z,37.00
2022-08-07T00:05:23.762Z,37.20
2022-08-07T00:08:00.203Z,37.30
2022-08-07T00:10:30.904Z,37.40
2022-08-07T00:13:17.372Z,37.50
2022-08-07T00:15:52.014Z,37.70
2022-08-07T00:18:24.303Z,37.50
2022-08-07T00:20:53.985Z,37.60
2022-08-07T00:23:21.828Z,37.70
2022-08-07T00:25:58.149Z,37.70
2022-08-07T00:28:34.167Z,37.90
2022-08-07T00:31:05.806Z,38.10
2022-08-07T00:33:34.666Z,38.00
2022-08-07T00:36:02.522Z,38.10
2022-08-07T00:38:31.043Z,38.10
2022-08-07T00:40:59.826Z,38.20
2022-08-07T00:44:00.197Z,38.30
2022-08-07T00:46:14.451Z,38.30
2022-08-07T00:48:42.616Z,38.30
2022-08-07T00:51:10.301Z,38.50
2022-08-07T00:53:39.191Z,38.50
2022-08-07T00:56:18.117Z,38.60
2022-08-07T00:58:46.780Z,38.60
2022-08-07T01:01:16.361Z,38.60
2022-08-07T01:03:55.547Z,38.80
2022-08-07T01:06:29.077Z,38.80
2022-08-07T01:08:58.649Z,38.90
2022-08-07T01:12:09.621Z,38.90
2022-08-07T01:14:28.273Z,39.10
2022-08-07T01:16:56.833Z,39.00
2022-08-07T01:19:26.390Z,39.10
2022-08-07T01:21:55.585Z,39.30
2022-08-07T01:24:30.709Z,39.30
2022-08-07T01:27:00.991Z,39.40
2022-08-07T01:29:31.503Z,39.40
2022-08-07T01:32:05.454Z,39.50
2022-08-07T01:34:33.852Z,39.50
2022-08-07T01:37:09.891Z,39.60
2022-08-07T01:39:46.290Z,39.70
2022-08-07T01:42:39.794Z,39.70
2022-08-07T01:45:18.259Z,39.80
2022-08-07T01:48:18.978Z,39.80
2022-08-07T01:50:43.036Z,39.80
2022-08-07T01:53:20.807Z,39.90
2022-08-07T01:55:57.049Z,40.00
2022-08-07T01:58:33.332Z,40.10
2022-08-07T02:01:44.793Z,40.30
2022-08-07T02:04:26.638Z,40.30
2022-08-07T02:07:00.167Z,40.30
2022-08-07T02:09:33.930Z,40.30
2022-08-07T02:12:22.107Z,40.40
2022-08-07T02:14:58.441Z,40.40
2022-08-07T02:17:40.909Z,40.50
2022-08-07T02:20:23.283Z,40.60
2022-08-07T02:22:59.715Z,40.60
2022-08-07T02:26:10.688Z,40.80
2022-08-07T02:28:24.831Z,40.80
2022-08-07T02:30:57.652Z,40.80
2022-08-07T02:33:42.184Z,40.90
2022-08-07T02:36:29.027Z,41.20
2022-08-07T02:39:15.987Z,41.00
2022-08-07T02:41:54.308Z,41.00
2022-08-07T02:44:26.893Z,41.00
2022-08-07T02:47:00.816Z,41.10
2022-08-07T02:49:58.381Z,41.30
2022-08-07T02:52:31.153Z,41.30
2022-08-07T02:55:28.636Z,41.40
2022-08-07T02:58:10.486Z,41.70
2022-08-07T03:00:47.090Z,41.50
2022-08-07T03:03:22.761Z,41.50
2022-08-07T03:05:56.233Z,41.60
2022-08-07T03:08:26.737Z,41.60
2022-08-07T03:10:58.942Z,41.70
2022-08-07T03:13:38.893Z,42.20
2022-08-07T03:16:17.521Z,41.80
2022-08-07T03:18:50.710Z,41.90
2022-08-07T03:21:19.193Z,41.90
2022-08-07T03:24:17.585Z,42.00
2022-08-07T03:26:43.112Z,42.00
2022-08-07T03:29:22.605Z,42.00
2022-08-07T03:31:56.357Z,42.00
2022-08-07T03:34:27.295Z,42.10
2022-08-07T03:37:00.455Z,42.20
2022-08-07T03:39:59.673Z,42.20
2022-08-07T03:42:29.693Z,42.20
2022-08-07T03:44:57.800Z,42.20
2022-08-07T03:47:47.700Z,42.40
2022-08-07T03:50:19.647Z,42.60
2022-08-07T03:52:52.013Z,42.40
2022-08-07T03:55:20.451Z,42.60
2022-08-07T03:58:32.893Z,42.60
2022-08-07T04:00:46.607Z,42.70
2022-08-07T04:03:21.121Z,42.70
2022-08-07T04:05:51.160Z,42.70
2022-08-07T04:08:22.093Z,42.70
2022-08-07T04:10:54.501Z,42.90
2022-08-07T04:14:10.248Z,42.90
2022-08-07T04:16:32.433Z,42.80
2022-08-07T04:19:14.701Z,42.90
2022-08-07T04:21:59.318Z,43.00
2022-08-07T04:24:39.191Z,43.00
2022-08-07T04:27:20.233Z,43.00
2022-08-07T04:30:01.304Z,43.10
2022-08-07T04:32:38.490Z,43.20
2022-08-07T04:35:13.726Z,43.70
2022-08-07T04:38:03.436Z,43.40
2022-08-07T04:40:32.317Z,43.40
2022-08-07T04:43:01.591Z,43.30
2022-08-07T04:46:00.542Z,43.50
2022-08-07T04:48:51.383Z,43.70
2022-08-07T04:51:33.525Z,43.50
2022-08-07T04:54:14.678Z,43.90
2022-08-07T04:58:11.834Z,43.80
2022-08-07T05:00:10.945Z,44.00
2022-08-07T05:03:17.241Z,44.20
2022-08-07T05:06:19.782Z,44.30
2022-08-07T05:09:03.181Z,43.90
2022-08-07T05:11:57.129Z,44.00
2022-08-07T05:14:54.969Z,44.20
2022-08-07T05:17:52.319Z,44.60
2022-08-07T05:20:26.867Z,44.20
2022-08-07T05:23:03.991Z,44.20
2022-08-07T05:26:10.549Z,44.30
2022-08-07T05:28:26.825Z,44.40
2022-08-07T05:30:57.083Z,44.40
2022-08-07T05:33:28.491Z,44.60
2022-08-07T05:35:58.355Z,44.70
2022-08-07T05:38:59.663Z,44.80
2022-08-07T05:41:16.886Z,44.80
2022-08-07T05:44:08.060Z,45.00
2022-08-07T05:46:38.057Z,45.20
2022-08-07T05:49:12.207Z,45.60
2022-08-07T05:51:46.148Z,45.70
2022-08-07T05:54:31.493Z,45.40
2022-08-07T05:57:09.160Z,45.60
2022-08-07T05:59:57.476Z,45.20
2022-08-07T06:02:31.743Z,45.40
2022-08-07T06:05:15.686Z,45.30
2022-08-07T06:08:14.110Z,45.40
2022-08-07T06:10:37.055Z,45.30
2022-08-07T06:13:06.146Z,45.50
2022-08-07T06:15:42.948Z,45.70
2022-08-07T06:18:17.292Z,46.00
2022-08-07T06:20:50.482Z,46.20
2022-08-07T06:24:38.211Z,45.70
2022-08-07T06:26:27.376Z,45.70
2022-08-07T06:28:57.898Z,45.90
2022-08-07T06:31:47.306Z,46.10
2022-08-07T06:34:15.601Z,46.20
2022-08-07T06:36:46.862Z,46.00
2022-08-07T06:40:16.506Z,46.30
2022-08-07T06:42:09.045Z,46.20
2022-08-07T06:44:56.146Z,46.40
2022-08-07T06:47:24.553Z,46.20
2022-08-07T06:49:58.821Z,46.20
2022-08-07T06:52:36.690Z,46.10
2022-08-07T06:55:32.877Z,46.10
2022-08-07T06:58:10.415Z,46.30
2022-08-07T07:00:53.066Z,46.20
2022-08-07T07:03:39.627Z,46.20
2022-08-07T07:06:11.081Z,46.40
2022-08-07T07:08:39.734Z,46.80
2022-08-07T07:12:08.195Z,46.90
2022-08-07T07:14:02.718Z,46.50
2022-08-07T07:16:50.080Z,46.30
2022-08-07T07:19:55.286Z,46.70
2022-08-07T07:22:35.930Z,46.20
2022-08-07T07:26:30.773Z,46.00
2022-08-07T07:28:29.846Z,46.10
2022-08-07T07:31:21.559Z,46.60
2022-08-07T07:33:57.182Z,46.50
2022-08-07T07:36:32.309Z,46.30
2022-08-07T07:39:01.641Z,46.20
2022-08-07T07:41:30.905Z,46.00
2022-08-07T07:44:25.780Z,45.90
2022-08-07T07:47:04.309Z,45.80
2022-08-07T07:50:33.580Z,45.70
2022-08-07T07:52:30.589Z,46.10
2022-08-07T07:54:59.845Z,45.50
2022-08-07T07:57:52.250Z,45.50
2022-08-07T08:00:20.986Z,45.30
2022-08-07T08:03:07.855Z,45.20
2022-08-07T08:05:50.548Z,45.00
2022-08-07T08:08:34.653Z,45.00
2022-08-07T08:11:09.342Z,44.90
2022-08-07T08:13:52.963Z,44.70
2022-08-07T08:16:25.295Z,44.70
2022-08-07T08:18:54.853Z,44.60
2022-08-07T08:21:58.576Z,44.60
2022-08-07T08:24:57.146Z,44.40
2022-08-07T08:27:38.658Z,44.30
2022-08-07T08:30:08.408Z,44.10
2022-08-07T08:32:49.885Z,43.90
2022-08-07T08:35:39.405Z,43.80
2022-08-07T08:38:16.985Z,43.70
2022-08-07T08:41:25.712Z,43.70
2022-08-07T08:44:04.404Z,43.30
2022-08-07T08:46:40.905Z,43.70
2022-08-07T08:49:46.412Z,43.70
2022-08-07T08:52:32.106Z,43.70
2022-08-07T08:55:55.285Z,44.00
2022-08-07T08:58:24.691Z,43.80
2022-08-07T09:01:18.464Z,44.80
2022-08-07T09:03:52.925Z,44.30
2022-08-07T09:06:36.701Z,43.90
2022-08-07T09:09:30.226Z,43.20
2022-08-07T09:12:30.835Z,43.10
2022-08-07T09:16:25.689Z,41.30
2022-08-07T09:18:53.421Z,40.30
2022-08-07T09:21:34.185Z,39.50
2022-08-07T09:24:59.774Z,39.30
2022-08-07T09:27:59.563Z,38.80
2022-08-07T09:31:10.644Z,38.30
2022-08-07T09:34:11.954Z,36.70
2022-08-07T09:36:53.806Z,35.60
2022-08-07T09:39:55.454Z,35.40
2022-08-07T09:42:32.946Z,34.30
2022-08-07T09:47:25.421Z,34.60
2022-08-07T09:48:11.692Z,32.50
2022-08-07T09:51:14.604Z,32.90
2022-08-07T09:54:02.581Z,31.60
2022-08-07T09:57:05.309Z,31.90
2022-08-07T10:00:14.384Z,30.80
2022-08-07T10:04:05.399Z,30.90
2022-08-07T10:06:25.226Z,30.30
2022-08-07T10:09:00.366Z,29.60
2022-08-07T10:12:00.193Z,29.60
2022-08-07T10:14:55.152Z,28.10
2022-08-07T10:18:01.572Z,28.50
2022-08-07T10:20:32.374Z,28.70
2022-08-07T10:23:16.977Z,28.80
2022-08-07T10:25:54.757Z,27.90
2022-08-07T10:28:50.797Z,27.50
2022-08-07T10:31:28.457Z,27.10
2022-08-07T10:34:27.335Z,26.90
2022-08-07T10:37:05.619Z,26.80
2022-08-07T10:40:13.848Z,27.30
2022-08-07T10:43:07.485Z,26.50
2022-08-07T10:45:45.405Z,26.40
2022-08-07T10:48:48.585Z,26.20
2022-08-07T10:51:39.178Z,25.20
2022-08-07T10:54:28.855Z,25.00
2022-08-07T10:57:37.069Z,25.40
2022-08-07T11:00:39.217Z,25.00
2022-08-07T11:03:17.230Z,24.90
2022-08-07T11:06:18.331Z,24.80
2022-08-07T11:09:11.274Z,24.40
2022-08-07T11:12:06.719Z,24.50
2022-08-07T11:14:44.470Z,24.40
2022-08-07T11:17:43.416Z,24.30
2022-08-07T11:20:41.762Z,23.40
2022-08-07T11:23:36.492Z,22.30
2022-08-07T11:26:26.556Z,22.90
2022-08-07T11:29:13.247Z,23.30
2022-08-07T11:32:25.859Z,23.30
2022-08-07T11:35:01.998Z,23.50
2022-08-07T11:38:10.391Z,23.90
2022-08-07T11:40:39.881Z,22.90
2022-08-07T11:43:41.526Z,23.50
2022-08-07T11:46:38.651Z,23.00
2022-08-07T11:50:11.223Z,23.10
2022-08-07T11:52:35.814Z,21.70
2022-08-07T11:55:18.707Z,22.40
2022-08-07T11:57:59.320Z,22.40
2022-08-07T12:01:02.144Z,22.40
2022-08-07T12:03:51.537Z,22.10
2022-08-07T12:06:37.972Z,22.70
2022-08-07T12:09:24.765Z,23.10
2022-08-07T12:12:10.647Z,22.60
2022-08-07T12:15:17.141Z,22.60
2022-08-07T12:18:08.189Z,22.30
2022-08-07T12:21:15.060Z,22.50
2022-08-07T12:24:37.834Z,22.40
2022-08-07T12:27:16.418Z,22.50
2022-08-07T12:29:56.725Z,22.50
2022-08-07T12:32:42.223Z,22.60
2022-08-07T12:35:13.267Z,22.70
2022-08-07T12:38:09.527Z,22.40
2022-08-07T12:40:50.316Z,22.50
2022-08-07T12:44:03.749Z,22.50
2022-08-07T12:46:10.398Z,22.50
2022-08-07T12:48:55.249Z,22.40
2022-08-07T12:51:33.129Z,22.10
2022-08-07T12:54:38.646Z,22.10
2022-08-07T12:57:09.922Z,22.20
2022-08-07T12:59:54.854Z,22.10
2022-08-07T13:02:37.526Z,21.90
2022-08-07T13:06:02.872Z,21.70
2022-08-07T13:08:48.830Z,21.70
2022-08-07T13:12:00.947Z,21.70
2022-08-07T13:14:52.625Z,21.70
2022-08-07T13:17:41.216Z,21.50
2022-08-07T13:20:39.030Z,21.60
2022-08-07T13:24:03.730Z,21.70
2022-08-07T13:26:15.932Z,21.70
2022-08-07T13:28:59.176Z,21.60
2022-08-07T13:31:31.927Z,21.60
2022-08-07T13:34:31.646Z,21.40
2022-08-07T13:37:11.010Z,21.20
2022-08-07T13:40:35.013Z,21.20
2022-08-07T13:42:48.421Z,21.10
2022-08-07T13:46:06.751Z,21.30
2022-08-07T13:48:08.743Z,21.30
2022-08-07T13:50:45.241Z,21.50
2022-08-07T13:53:55.201Z,21.40
2022-08-07T13:56:36.294Z,21.40
2022-08-07T13:59:15.654Z,21.50
2022-08-07T14:02:03.456Z,21.50
2022-08-07T14:04:38.906Z,21.40
2022-08-07T14:07:21.178Z,21.40
2022-08-07T14:10:12.251Z,21.30
2022-08-07T14:13:00.560Z,21.20
2022-08-07T14:15:34.985Z,21.20
2022-08-07T14:18:27.705Z,21.10
2022-08-07T14:21:21.262Z,21.10
2022-08-07T14:24:06.432Z,21.00
2022-08-07T14:26:50.366Z,20.90
2022-08-07T14:30:05.539Z,20.90
2022-08-07T14:32:12.272Z,21.00
2022-08-07T14:34:45.987Z,21.10
2022-08-07T14:37:17.092Z,21.60
2022-08-07T14:40:17.257Z,21.30
2022-08-07T14:43:55.809Z,21.10
2022-08-07T14:45:46.482Z,21.20
2022-08-07T14:48:20.328Z,21.20
2022-08-07T14:50:50.982Z,21.20
2022-08-07T14:54:05.600Z,21.20
2022-08-07T14:56:13.138Z,21.30
2022-08-07T14:58:45.158Z,21.30
2022-08-07T15:01:22.261Z,21.40
2022-08-07T15:03:51.391Z,21.40
2022-08-07T15:06:25.107Z,21.30
2022-08-07T15:08:54.961Z,21.30
2022-08-07T15:11:53.411Z,21.20
2022-08-07T15:14:25.385Z,21.10
2022-08-07T15:17:01.132Z,21.10
2022-08-07T15:25:19.497Z,20.90
2022-08-07T15:28:30.782Z,21.00
2022-08-07T15:31:04.680Z,21.10
2022-08-07T15:33:33.493Z,21.20
2022-08-07T15:38:59.055Z,21.40
2022-08-07T15:42:43.667Z,21.50
2022-08-07T15:44:21.173Z,21.40
2022-08-07T15:50:04.878Z,21.50
2022-08-07T15:52:38.086Z,21.70
2022-08-07T15:55:12.131Z,21.70
2022-08-07T15:57:48.584Z,21.70
2022-08-07T16:00:31.825Z,21.80
2022-08-07T16:03:21.761Z,21.80
2022-08-07T16:05:59.110Z,21.90
2022-08-07T16:08:37.859Z,21.80
2022-08-07T16:11:26.472Z,21.90
2022-08-07T16:14:29.625Z,22.00
2022-08-07T16:17:03.401Z,21.90
2022-08-07T16:20:04.281Z,21.80
2022-08-07T16:22:54.900Z,21.90
2022-08-07T16:25:54.228Z,21.90
2022-08-07T16:30:05.419Z,21.90
2022-08-07T16:32:34.713Z,22.00
2022-08-07T16:35:58.600Z,21.90
2022-08-07T16:38:09.451Z,21.90
2022-08-07T16:41:04.355Z,22.00
2022-08-07T16:44:02.555Z,22.10
2022-08-07T16:47:18.815Z,22.10
2022-08-07T16:50:27.054Z,22.10
2022-08-07T16:53:55.382Z,22.10
2022-08-07T16:56:05.727Z,22.10
2022-08-07T16:59:11.126Z,22.20
2022-08-07T17:02:15.374Z,22.40
2022-08-07T17:06:19.514Z,22.50
2022-08-07T17:08:09.221Z,22.50
2022-08-07T17:10:54.802Z,22.50
2022-08-07T17:13:41.142Z,22.60
2022-08-07T17:16:33.008Z,22.60
2022-08-07T17:20:00.647Z,22.70
2022-08-07T17:22:30.257Z,22.60
2022-08-07T17:25:19.270Z,22.80
2022-08-07T17:27:58.126Z,22.80
2022-08-07T17:30:33.684Z,23.10
2022-08-07T17:34:18.172Z,22.80
2022-08-07T17:36:26.123Z,23.00
2022-08-07T17:39:10.384Z,23.10
2022-08-07T17:42:04.732Z,23.00
2022-08-07T17:44:55.363Z,23.10
2022-08-07T17:47:38.224Z,23.10
2022-08-07T17:50:19.950Z,23.20
2022-08-07T17:52:59.631Z,23.30
2022-08-07T17:56:00.592Z,23.30
2022-08-07T17:58:46.145Z,23.30
2022-08-07T18:01:36.575Z,23.50
2022-08-07T18:04:31.234Z,24.00
2022-08-07T18:07:22.879Z,23.70
2022-08-07T18:10:31.970Z,23.60
2022-08-07T18:13:26.143Z,24.10
2022-08-07T18:16:32.922Z,23.80
2022-08-07T18:21:06.024Z,23.90
2022-08-07T18:22:36.118Z,23.90
2022-08-07T18:25:23.999Z,24.00
2022-08-07T18:28:00.574Z,23.90
2022-08-07T18:30:48.016Z,24.00
2022-08-07T18:33:37.853Z,24.20
2022-08-07T18:36:16.499Z,24.30
2022-08-07T18:40:07.166Z,24.20
2022-08-07T18:41:58.695Z,24.50
2022-08-07T18:44:28.628Z,24.40
2022-08-07T18:47:37.958Z,24.50
2022-08-07T18:50:40.910Z,24.90
2022-08-07T18:53:39.366Z,24.80
2022-08-07T18:56:31.890Z,24.80
2022-08-07T18:59:47.734Z,24.80
2022-08-07T19:02:36.498Z,25.10
2022-08-07T19:05:22.728Z,25.20
2022-08-07T19:07:58.862Z,25.30
2022-08-07T19:11:15.463Z,25.10
2022-08-07T19:14:07.905Z,25.40
2022-08-07T19:17:04.692Z,25.20
2022-08-07T19:20:06.546Z,25.60
2022-08-07T19:23:18.757Z,25.70
2022-08-07T19:26:24.573Z,25.70
2022-08-07T19:30:55.781Z,25.70
2022-08-07T19:32:07.969Z,25.80
2022-08-07T19:34:32.701Z,25.80
2022-08-07T19:37:10.170Z,25.80
2022-08-07T19:39:57.319Z,25.90
2022-08-07T19:42:30.495Z,26.10
2022-08-07T19:45:09.267Z,26.20
2022-08-07T19:47:38.604Z,26.60
2022-08-07T19:50:44.373Z,26.30
2022-08-07T19:52:58.604Z,26.40
2022-08-07T19:55:57.645Z,26.40
2022-08-07T19:58:27.847Z,26.50
2022-08-07T20:00:57.761Z,26.50
2022-08-07T20:03:34.581Z,26.70
2022-08-07T20:06:04.901Z,26.80
2022-08-07T20:08:40.961Z,26.90
2022-08-07T20:11:23.063Z,27.20
2022-08-07T20:14:03.074Z,27.00
2022-08-07T20:16:36.842Z,27.10
2022-08-07T20:19:10.242Z,27.30
2022-08-07T20:21:48.085Z,27.60
2022-08-07T20:24:28.921Z,27.50
2022-08-07T20:27:01.475Z,27.90
2022-08-07T20:29:56.902Z,27.80
2022-08-07T20:32:46.646Z,28.10
2022-08-07T20:35:22.057Z,28.20
2022-08-07T20:37:59.562Z,28.20
2022-08-07T20:40:32.518Z,28.10
2022-08-07T20:43:14.494Z,28.20
2022-08-07T20:46:25.795Z,28.30
2022-08-07T20:48:34.138Z,28.30
2022-08-07T20:51:03.691Z,28.50
2022-08-07T20:54:04.654Z,28.60
2022-08-07T20:56:30.568Z,28.90
2022-08-07T20:59:02.523Z,28.80
2022-08-07T21:01:45.235Z,28.80
2022-08-07T21:04:22.410Z,28.80
2022-08-07T21:06:53.485Z,28.90
2022-08-07T21:09:28.722Z,28.90
2022-08-07T21:12:15.085Z,29.10
2022-08-07T21:14:53.251Z,29.20
2022-08-07T21:18:02.149Z,29.20
2022-08-07T21:20:26.689Z,29.30
2022-08-07T21:23:08.635Z,29.30
2022-08-07T21:25:56.866Z,29.40
2022-08-07T21:28:48.982Z,29.70
2022-08-07T21:32:41.755Z,29.70
2022-08-07T21:34:48.409Z,29.80
2022-08-07T21:37:26.028Z,29.70
2022-08-07T21:40:07.500Z,29.90
2022-08-07T21:42:54.759Z,29.90
2022-08-07T21:46:07.551Z,30.20
2022-08-07T21:48:56.726Z,30.40
2022-08-07T21:51:51.611Z,30.00
2022-08-07T21:54:48.299Z,30.30
2022-08-07T21:57:45.168Z,30.30
2022-08-07T22:00:24.924Z,30.70
2022-08-07T22:03:30.840Z,30.50
2022-08-07T22:06:03.869Z,31.10
2022-08-07T22:08:45.884Z,30.70
2022-08-07T22:11:18.197Z,31.20
2022-08-07T22:13:55.087Z,31.00
2022-08-07T22:16:42.654Z,31.10
2022-08-07T22:19:23.583Z,31.50
2022-08-07T22:22:17.938Z,31.40
2022-08-07T22:25:20.259Z,31.60
2022-08-07T22:28:30.131Z,31.90
2022-08-07T22:31:12.613Z,31.40
2022-08-07T22:34:06.577Z,32.10
2022-08-07T22:37:05.824Z,31.90
2022-08-07T22:39:54.141Z,32.40
2022-08-07T22:42:25.659Z,32.30
2022-08-07T22:45:02.285Z,32.10
2022-08-07T22:47:49.212Z,32.40
2022-08-07T22:50:39.649Z,33.00
2022-08-07T22:54:06.479Z,33.10
2022-08-07T22:57:00.682Z,33.80
2022-08-07T22:59:41.508Z,33.20
2022-08-07T23:02:55.429Z,33.20
2022-08-07T23:06:08.273Z,33.40
2022-08-07T23:08:55.801Z,33.20
2022-08-07T23:12:12.087Z,33.80
2022-08-07T23:16:04.394Z,33.60
2022-08-07T23:18:32.042Z,33.70
2022-08-07T23:21:12.102Z,33.90
2022-08-07T23:24:11.839Z,34.00
2022-08-07T23:27:11.727Z,34.30
2022-08-07T23:30:38.283Z,34.30
2022-08-07T23:34:23.217Z,33.80
2022-08-07T23:36:29.259Z,34.60
2022-08-07T23:39:15.282Z,34.40
2022-08-07T23:42:22.267Z,34.10
2022-08-07T23:44:49.133Z,34.80
2022-08-07T23:47:47.892Z,34.30
2022-08-07T23:50:28.547Z,35.20
2022-08-07T23:53:16.567Z,34.90
2022-08-07T23:55:56.117Z,34.60
2022-08-07T23:58:49.700Z,35.00
